Ballina/Mayo, Ireland
Current Conditions -  °F | °C
As of 8:00 AM on Monday 20 Oct 2014 (Local Time) from EIKN Reporting Station
Broken Clouds Broken Clouds  
Wind Chill: 46°   Ceiling: 8600
Heat Index: 48°   Visibility: 6mi
Dew Point: 46°   Wind: 6mph
Humidity: 93%   Direction: 190°S
Pressure: 29.83"   Gusts: NA
Location:  54.12°N, 9.16°W
Report Text: EIKN 200800Z 19005KT 160V220 9999 SCT028 SCT063 BKN086 09/08 Q1010 NOSIG
Loading
Personal Weather Stations






























Interactive Weather Map
Tropical Storm Tracking
New forecast layout! Learn more

10-Day Weather Forecast

Advertisements
Track Severe Weather on mobile